Time;durP1;ratioP1;P1;durP2;ratioP2;P2;SDS_P1;SDS_P2;PMS_P1;PMS_P2;Temp;Humidity;BMP_temperature;BMP_pressure;BME280_temperature;BME280_humidity;BME280_pressure;Samples;Min_cycle;Max_cycle;Signal;HPM_P1;HPM_P2
2022/10/13 00:01:46;;;;;;;0.90;0.87;;;;;;;;;;5051029;28;20209;-80
2022/10/13 00:04:13;;;;;;;2.30;0.70;;;;;;;;;;5050596;28;20215;-81
2022/10/13 00:06:39;;;;;;;0.67;0.67;;;;;;;;;;5051158;28;20210;-81
2022/10/13 00:09:06;;;;;;;0.90;0.83;;;;;;;;;;5050368;28;20588;-80
2022/10/13 00:11:33;;;;;;;0.90;0.80;;;;;;;;;;5050453;28;20205;-81
2022/10/13 00:14:03;;;;;;;0.63;0.63;;;;;;;;;;5050506;28;20196;-80
2022/10/13 00:16:31;;;;;;;1.27;1.00;;;;;;;;;;5050512;28;20653;-80
2022/10/13 00:18:58;;;;;;;0.80;0.80;;;;;;;;;;5050448;28;20220;-81
2022/10/13 00:21:27;;;;;;;1.10;1.00;;;;;;;;;;5050720;28;20200;-80
2022/10/13 00:23:54;;;;;;;0.60;0.60;;;;;;;;;;5050066;28;20256;-80
2022/10/13 00:26:22;;;;;;;1.07;1.00;;;;;;;;;;5049337;28;20202;-80
2022/10/13 00:28:49;;;;;;;0.97;0.90;;;;;;;;;;5050364;28;20209;-80
2022/10/13 00:31:19;;;;;;;1.00;1.00;;;;;;;;;;5050476;28;20198;-80
2022/10/13 00:33:46;;;;;;;0.90;0.90;;;;;;;;;;5050298;28;20224;-80
2022/10/13 00:36:12;;;;;;;0.80;0.80;;;;;;;;;;5049911;28;20233;-80
2022/10/13 00:38:39;;;;;;;0.73;0.73;;;;;;;;;;5050425;28;20217;-80
2022/10/13 00:41:06;;;;;;;1.70;0.80;;;;;;;;;;5050354;28;20573;-80
2022/10/13 00:43:51;;;;;;;1.23;0.90;;;;;;;;;;5050488;28;20653;-79
2022/10/13 00:46:20;;;;;;;2.70;0.80;;;;;;;;;;5050571;28;20210;-80
2022/10/13 00:48:47;;;;;;;1.00;0.90;;;;;;;;;;5050278;28;20211;-80
2022/10/13 00:51:16;;;;;;;1.00;0.90;;;;;;;;;;5050170;28;20763;-81
2022/10/13 00:53:44;;;;;;;1.57;0.90;;;;;;;;;;5035937;28;20668;-80
2022/10/13 00:56:12;;;;;;;1.40;1.30;;;;;;;;;;5050021;28;20245;-81
2022/10/13 00:58:39;;;;;;;2.10;0.80;;;;;;;;;;5049442;28;20205;-80
2022/10/13 01:01:06;;;;;;;1.90;0.90;;;;;;;;;;5050180;28;20619;-81
2022/10/13 01:03:35;;;;;;;1.17;1.13;;;;;;;;;;5048326;28;20198;-81
2022/10/13 01:06:03;;;;;;;5.33;1.40;;;;;;;;;;5049442;28;20633;-81
2022/10/13 01:08:30;;;;;;;0.73;0.70;;;;;;;;;;5050365;28;20225;-80
2022/10/13 01:11:08;;;;;;;0.83;0.83;;;;;;;;;;5049800;28;20201;-81
2022/10/13 01:13:40;;;;;;;0.80;0.80;;;;;;;;;;5049713;28;20202;-81
2022/10/13 01:16:11;;;;;;;1.23;1.13;;;;;;;;;;5049487;28;20208;-81
2022/10/13 01:18:43;;;;;;;3.87;1.23;;;;;;;;;;5050116;28;20289;-81
2022/10/13 01:21:19;;;;;;;1.03;0.97;;;;;;;;;;5049863;28;20206;-82
2022/10/13 01:24:28;;;;;;;3.40;0.97;;;;;;;;;;5049883;28;20232;-81
2022/10/13 01:27:04;;;;;;;1.23;0.90;;;;;;;;;;5050085;28;20228;-81
2022/10/13 01:30:03;;;;;;;2.67;1.23;;;;;;;;;;5048245;28;20205;-81
2022/10/13 01:32:37;;;;;;;0.80;0.80;;;;;;;;;;5047039;28;20194;-81
2022/10/13 01:35:09;;;;;;;1.60;0.90;;;;;;;;;;5049911;28;20263;-81
2022/10/13 01:37:42;;;;;;;0.63;0.63;;;;;;;;;;5048577;28;20287;-81
2022/10/13 01:40:14;;;;;;;1.30;1.00;;;;;;;;;;5051978;28;20586;-81
2022/10/13 01:42:53;;;;;;;0.93;0.93;;;;;;;;;;5053466;28;20209;-81
2022/10/13 01:45:22;;;;;;;1.23;0.93;;;;;;;;;;5053301;28;20248;-81
2022/10/13 01:47:51;;;;;;;0.83;0.83;;;;;;;;;;5053784;28;20208;-81
2022/10/13 01:50:19;;;;;;;1.80;1.20;;;;;;;;;;5039559;28;20198;-81
2022/10/13 01:52:47;;;;;;;2.97;1.07;;;;;;;;;;5053269;28;20285;-81
2022/10/13 01:55:14;;;;;;;1.43;1.00;;;;;;;;;;5053156;28;20284;-81
2022/10/13 01:57:42;;;;;;;1.43;1.33;;;;;;;;;;5053271;28;20662;-81
2022/10/13 02:00:10;;;;;;;4.97;2.47;;;;;;;;;;5052719;28;20209;-80
2022/10/13 02:02:40;;;;;;;1.63;1.53;;;;;;;;;;5051216;28;20202;-76
2022/10/13 02:05:15;;;;;;;3.47;1.90;;;;;;;;;;5052215;28;20256;-80
2022/10/13 02:07:45;;;;;;;5.00;3.97;;;;;;;;;;5052033;28;20218;-79
2022/10/13 02:10:15;;;;;;;3.00;2.20;;;;;;;;;;5050445;28;20198;-79
2022/10/13 02:12:46;;;;;;;3.40;2.10;;;;;;;;;;5051887;28;20706;-80
2022/10/13 02:15:16;;;;;;;4.40;2.23;;;;;;;;;;5051700;28;20245;-79
2022/10/13 02:17:43;;;;;;;2.50;1.80;;;;;;;;;;5051307;28;20230;-80
2022/10/13 02:20:12;;;;;;;1.87;1.70;;;;;;;;;;5051773;28;20233;-80
2022/10/13 02:22:43;;;;;;;2.63;1.87;;;;;;;;;;5051479;28;20720;-79
2022/10/13 02:25:10;;;;;;;7.77;2.00;;;;;;;;;;5051858;28;20208;-80
2022/10/13 02:27:37;;;;;;;1.47;1.37;;;;;;;;;;5052667;28;20260;-78
2022/10/13 02:30:04;;;;;;;1.80;1.40;;;;;;;;;;5052630;28;20202;-80
2022/10/13 02:32:31;;;;;;;1.43;1.33;;;;;;;;;;5052393;28;20688;-80
2022/10/13 02:34:58;;;;;;;5.10;1.70;;;;;;;;;;5052319;28;20209;-80
2022/10/13 02:37:26;;;;;;;1.40;1.30;;;;;;;;;;5051126;28;20714;-80
2022/10/13 02:39:53;;;;;;;2.90;1.03;;;;;;;;;;5052317;28;20206;-80
2022/10/13 02:42:20;;;;;;;1.77;1.50;;;;;;;;;;5051201;28;20634;-79
2022/10/13 02:44:47;;;;;;;3.60;1.20;;;;;;;;;;5051463;28;20305;-79
2022/10/13 02:47:13;;;;;;;1.07;1.07;;;;;;;;;;5052685;28;20210;-80
2022/10/13 02:49:40;;;;;;;1.73;1.30;;;;;;;;;;5050906;28;20668;-79
2022/10/13 02:52:07;;;;;;;1.93;1.17;;;;;;;;;;5052217;28;20664;-80
2022/10/13 02:54:35;;;;;;;1.43;1.30;;;;;;;;;;5051772;28;20202;-80
2022/10/13 02:57:02;;;;;;;3.17;1.50;;;;;;;;;;5051618;28;20699;-80
2022/10/13 02:59:29;;;;;;;1.77;1.43;;;;;;;;;;5051947;28;20202;-79
2022/10/13 03:01:56;;;;;;;1.80;1.33;;;;;;;;;;5052123;28;20201;-80
2022/10/13 03:04:22;;;;;;;1.20;1.10;;;;;;;;;;5051680;28;20271;-79
2022/10/13 03:06:49;;;;;;;2.27;1.60;;;;;;;;;;5051817;28;20210;-80
2022/10/13 03:09:16;;;;;;;1.50;1.40;;;;;;;;;;5052120;28;20641;-79
2022/10/13 03:11:44;;;;;;;2.77;1.60;;;;;;;;;;5051704;28;20210;-78
2022/10/13 03:14:11;;;;;;;1.60;1.40;;;;;;;;;;5051985;28;20647;-79
2022/10/13 03:16:38;;;;;;;0.93;0.93;;;;;;;;;;5051776;28;20228;-80
2022/10/13 03:19:05;;;;;;;1.60;1.00;;;;;;;;;;5051450;28;20210;-79
2022/10/13 03:21:31;;;;;;;1.60;1.50;;;;;;;;;;5051758;28;20209;-78
2022/10/13 03:23:58;;;;;;;1.50;1.20;;;;;;;;;;5051636;28;20205;-79
2022/10/13 03:26:25;;;;;;;2.73;1.93;;;;;;;;;;5051671;28;20620;-80
2022/10/13 03:28:53;;;;;;;1.90;1.40;;;;;;;;;;5051117;28;20198;-80
2022/10/13 03:31:20;;;;;;;1.43;1.33;;;;;;;;;;5051342;28;20264;-78
2022/10/13 03:33:46;;;;;;;1.30;1.20;;;;;;;;;;5051258;28;20198;-80
2022/10/13 03:36:13;;;;;;;2.33;2.10;;;;;;;;;;5037344;28;20205;-79
2022/10/13 03:38:40;;;;;;;6.97;3.70;;;;;;;;;;5051686;28;20230;-80
2022/10/13 03:41:09;;;;;;;8.30;6.97;;;;;;;;;;5051135;28;20263;-80
2022/10/13 03:43:36;;;;;;;10.43;7.77;;;;;;;;;;5051200;28;20201;-80
2022/10/13 03:46:05;;;;;;;10.13;7.33;;;;;;;;;;5050490;28;20205;-80
2022/10/13 03:48:33;;;;;;;16.57;14.97;;;;;;;;;;5051311;28;20202;-79
2022/10/13 03:50:59;;;;;;;53.67;34.03;;;;;;;;;;5050914;28;20209;-80
2022/10/13 03:53:26;;;;;;;52.90;31.30;;;;;;;;;;5051196;28;20229;-80
2022/10/13 03:55:55;;;;;;;61.67;35.10;;;;;;;;;;5050574;28;20206;-80
2022/10/13 03:58:23;;;;;;;82.57;45.60;;;;;;;;;;5050849;28;20299;-79
2022/10/13 04:00:50;;;;;;;90.93;50.30;;;;;;;;;;5050160;28;20732;-79
2022/10/13 04:03:19;;;;;;;87.77;48.67;;;;;;;;;;5050989;28;20220;-79
2022/10/13 04:05:46;;;;;;;76.97;43.73;;;;;;;;;;5049373;28;20263;-80
2022/10/13 04:08:13;;;;;;;28.83;19.33;;;;;;;;;;5050456;28;20209;-79
2022/10/13 04:10:40;;;;;;;18.20;12.93;;;;;;;;;;5048690;28;20293;-79
2022/10/13 04:13:08;;;;;;;11.30;8.10;;;;;;;;;;5050057;28;20691;-79
2022/10/13 04:15:37;;;;;;;17.37;12.83;;;;;;;;;;5050126;28;20202;-79
2022/10/13 04:18:04;;;;;;;17.50;10.83;;;;;;;;;;5050594;28;20312;-79
2022/10/13 04:20:36;;;;;;;22.80;15.23;;;;;;;;;;5050532;28;20252;-79
2022/10/13 04:23:03;;;;;;;10.33;8.33;;;;;;;;;;5050702;28;20209;-79
2022/10/13 04:25:30;;;;;;;11.20;7.77;;;;;;;;;;5050592;28;20198;-80
2022/10/13 04:27:56;;;;;;;12.67;7.83;;;;;;;;;;5050374;28;20206;-78
2022/10/13 04:30:25;;;;;;;8.53;7.10;;;;;;;;;;5050323;28;20676;-81
2022/10/13 04:32:51;;;;;;;6.07;5.57;;;;;;;;;;5050893;28;20206;-79
2022/10/13 04:35:18;;;;;;;6.93;5.93;;;;;;;;;;5050112;28;20197;-77
2022/10/13 04:37:46;;;;;;;4.57;4.17;;;;;;;;;;5049826;28;20704;-77
2022/10/13 04:40:15;;;;;;;4.00;3.70;;;;;;;;;;5050267;28;20205;-77
2022/10/13 04:42:42;;;;;;;9.53;7.77;;;;;;;;;;5050979;28;20213;-77
2022/10/13 04:45:09;;;;;;;10.80;9.53;;;;;;;;;;5050061;28;20209;-77
2022/10/13 04:47:38;;;;;;;8.87;6.40;;;;;;;;;;5050812;28;20198;-77
2022/10/13 04:50:05;;;;;;;7.13;4.07;;;;;;;;;;5050360;28;20293;-77
2022/10/13 04:52:34;;;;;;;3.93;3.23;;;;;;;;;;5050510;28;20236;-78
2022/10/13 04:55:04;;;;;;;3.47;3.17;;;;;;;;;;5049683;28;20210;-77
2022/10/13 04:57:30;;;;;;;7.60;3.60;;;;;;;;;;5050427;28;20226;-77
2022/10/13 04:59:57;;;;;;;5.30;4.20;;;;;;;;;;5050297;28;20208;-77
2022/10/13 05:02:24;;;;;;;5.67;4.33;;;;;;;;;;5050260;28;20573;-77
2022/10/13 05:04:50;;;;;;;3.10;2.90;;;;;;;;;;5049989;28;20209;-77
2022/10/13 05:07:17;;;;;;;5.20;3.33;;;;;;;;;;5050245;28;20209;-77
2022/10/13 05:09:44;;;;;;;3.63;3.27;;;;;;;;;;5050370;28;20202;-77
2022/10/13 05:12:12;;;;;;;2.47;2.27;;;;;;;;;;5050409;28;20194;-78
2022/10/13 05:14:39;;;;;;;3.43;3.03;;;;;;;;;;5053670;28;20194;-77
2022/10/13 05:17:06;;;;;;;5.30;2.93;;;;;;;;;;5053897;28;20198;-77
2022/10/13 05:19:32;;;;;;;19.83;14.43;;;;;;;;;;5053934;28;20222;-77
2022/10/13 05:21:59;;;;;;;7.23;6.03;;;;;;;;;;5053681;28;20216;-77
2022/10/13 05:24:35;;;;;;;9.93;4.90;;;;;;;;;;5053841;28;20255;-77
2022/10/13 05:27:03;;;;;;;5.00;3.40;;;;;;;;;;5053834;28;20208;-77
2022/10/13 05:29:31;;;;;;;5.47;2.27;;;;;;;;;;5054077;28;20410;-77
2022/10/13 05:31:58;;;;;;;2.67;2.43;;;;;;;;;;5054095;28;20650;-77
2022/10/13 05:34:24;;;;;;;2.40;2.20;;;;;;;;;;5053018;28;20661;-77
2022/10/13 05:36:51;;;;;;;2.27;2.00;;;;;;;;;;5053690;28;20206;-77
2022/10/13 05:39:18;;;;;;;4.37;2.57;;;;;;;;;;5053238;28;20226;-77
2022/10/13 05:41:45;;;;;;;2.23;2.03;;;;;;;;;;5053777;28;20202;-77
2022/10/13 05:44:12;;;;;;;4.43;2.50;;;;;;;;;;5053340;28;20581;-77
2022/10/13 05:46:40;;;;;;;2.97;2.20;;;;;;;;;;5053184;28;20255;-77
2022/10/13 05:49:06;;;;;;;3.23;2.87;;;;;;;;;;5053217;28;20210;-77
2022/10/13 05:51:35;;;;;;;6.40;3.83;;;;;;;;;;5053448;28;20202;-77
2022/10/13 05:54:04;;;;;;;6.20;3.93;;;;;;;;;;5053295;28;20237;-77
2022/10/13 05:56:32;;;;;;;4.70;3.60;;;;;;;;;;5053225;28;20595;-77
2022/10/13 05:59:03;;;;;;;7.90;4.23;;;;;;;;;;5053439;28;20232;-77
2022/10/13 06:01:31;;;;;;;9.17;5.43;;;;;;;;;;5053373;28;20206;-77
2022/10/13 06:04:06;;;;;;;8.03;5.27;;;;;;;;;;5053163;28;20255;-77
2022/10/13 06:06:33;;;;;;;9.60;4.63;;;;;;;;;;5053385;28;20645;-77
2022/10/13 06:09:00;;;;;;;8.97;3.17;;;;;;;;;;5052589;28;20201;-77
2022/10/13 06:11:27;;;;;;;3.47;3.07;;;;;;;;;;5053000;28;20794;-77
2022/10/13 06:13:54;;;;;;;3.43;2.30;;;;;;;;;;5052756;28;20198;-77
2022/10/13 06:16:20;;;;;;;4.53;2.50;;;;;;;;;;5052638;28;20206;-77
2022/10/13 06:18:47;;;;;;;2.90;2.70;;;;;;;;;;5052954;28;20231;-77
2022/10/13 06:21:16;;;;;;;4.37;2.83;;;;;;;;;;5052953;28;20202;-76
2022/10/13 06:23:42;;;;;;;3.67;3.27;;;;;;;;;;5052193;28;20248;-77
2022/10/13 06:26:09;;;;;;;3.03;2.50;;;;;;;;;;5052727;28;20206;-77
2022/10/13 06:28:36;;;;;;;5.83;2.80;;;;;;;;;;5053089;28;20198;-77
2022/10/13 06:31:04;;;;;;;3.77;2.90;;;;;;;;;;5052650;28;20210;-77
2022/10/13 06:33:31;;;;;;;2.00;1.80;;;;;;;;;;5052850;28;20642;-77
2022/10/13 06:36:01;;;;;;;2.87;2.43;;;;;;;;;;5052381;28;20686;-77
2022/10/13 06:38:29;;;;;;;3.10;2.30;;;;;;;;;;5052514;28;20229;-77
2022/10/13 06:40:59;;;;;;;3.00;2.40;;;;;;;;;;5052699;28;20227;-77
2022/10/13 06:43:26;;;;;;;2.70;2.30;;;;;;;;;;5052195;28;20209;-77
2022/10/13 06:45:53;;;;;;;2.57;2.10;;;;;;;;;;5052029;28;20211;-77
2022/10/13 06:48:20;;;;;;;2.50;2.23;;;;;;;;;;5052632;28;20229;-77
2022/10/13 06:50:47;;;;;;;2.70;2.50;;;;;;;;;;5052480;28;20208;-77
2022/10/13 06:53:14;;;;;;;2.40;2.20;;;;;;;;;;5052320;28;20252;-77
2022/10/13 06:55:42;;;;;;;2.63;2.17;;;;;;;;;;5051806;28;20245;-77
2022/10/13 06:58:09;;;;;;;3.63;2.33;;;;;;;;;;5052304;28;20307;-77
2022/10/13 07:00:36;;;;;;;2.43;2.23;;;;;;;;;;5052177;28;20867;-77
2022/10/13 07:03:03;;;;;;;2.03;1.93;;;;;;;;;;5052035;28;20613;-77
2022/10/13 07:05:30;;;;;;;4.03;2.23;;;;;;;;;;5051962;28;20203;-76
2022/10/13 07:07:57;;;;;;;2.80;2.07;;;;;;;;;;5052045;28;20566;-77
2022/10/13 07:10:23;;;;;;;1.50;1.40;;;;;;;;;;5051249;28;20202;-77
2022/10/13 07:12:51;;;;;;;2.43;2.00;;;;;;;;;;5052015;28;20210;-77
2022/10/13 07:15:18;;;;;;;2.33;2.13;;;;;;;;;;5051516;28;20212;-77
2022/10/13 07:17:45;;;;;;;2.20;2.10;;;;;;;;;;5051964;28;20209;-77
2022/10/13 07:20:12;;;;;;;2.47;2.27;;;;;;;;;;5051374;28;20232;-77
2022/10/13 07:22:39;;;;;;;4.63;2.10;;;;;;;;;;5052053;28;20671;-77
2022/10/13 07:25:06;;;;;;;2.53;2.33;;;;;;;;;;5050934;28;20217;-77
2022/10/13 07:27:33;;;;;;;3.23;2.00;;;;;;;;;;5051563;28;20252;-77
2022/10/13 07:30:01;;;;;;;1.73;1.63;;;;;;;;;;5051644;28;20393;-77
2022/10/13 07:32:28;;;;;;;2.43;2.07;;;;;;;;;;5051593;28;20197;-77
2022/10/13 07:34:55;;;;;;;2.50;2.30;;;;;;;;;;5051102;28;20617;-77
2022/10/13 07:37:22;;;;;;;2.77;2.37;;;;;;;;;;5050659;28;20205;-77
2022/10/13 07:39:48;;;;;;;2.50;1.80;;;;;;;;;;5051283;28;20221;-77
2022/10/13 07:42:16;;;;;;;2.63;1.93;;;;;;;;;;5051492;28;20208;-78
2022/10/13 07:44:42;;;;;;;3.87;2.20;;;;;;;;;;5050919;28;20251;-77
2022/10/13 07:47:10;;;;;;;1.70;1.60;;;;;;;;;;5051178;28;20197;-77
2022/10/13 07:49:37;;;;;;;2.50;2.30;;;;;;;;;;5051072;28;20640;-76
2022/10/13 07:52:04;;;;;;;5.07;2.03;;;;;;;;;;5050793;28;20205;-75
2022/10/13 07:54:31;;;;;;;3.23;1.97;;;;;;;;;;5051289;28;20201;-75
2022/10/13 07:56:58;;;;;;;1.90;1.80;;;;;;;;;;5050832;28;20255;-75
2022/10/13 07:59:24;;;;;;;2.43;2.00;;;;;;;;;;5051026;28;20233;-75
2022/10/13 08:01:51;;;;;;;3.73;2.10;;;;;;;;;;5050883;28;20202;-75
2022/10/13 08:04:19;;;;;;;3.37;1.90;;;;;;;;;;5050832;28;20201;-78
2022/10/13 08:06:46;;;;;;;2.37;1.97;;;;;;;;;;5050579;28;20206;-75
2022/10/13 08:09:13;;;;;;;2.07;1.97;;;;;;;;;;5050909;28;20621;-75
2022/10/13 08:11:40;;;;;;;3.03;2.50;;;;;;;;;;5051186;28;20214;-75
2022/10/13 08:14:07;;;;;;;4.53;2.20;;;;;;;;;;5050702;28;20206;-75
2022/10/13 08:16:34;;;;;;;5.27;3.07;;;;;;;;;;5051264;28;20213;-78
2022/10/13 08:19:00;;;;;;;2.63;2.20;;;;;;;;;;5050236;28;20219;-75
2022/10/13 08:21:29;;;;;;;1.97;1.87;;;;;;;;;;5050279;28;20211;-75
2022/10/13 08:23:56;;;;;;;4.13;2.33;;;;;;;;;;5050779;28;20308;-75
2022/10/13 08:26:25;;;;;;;2.83;2.00;;;;;;;;;;5050771;28;20209;-75
2022/10/13 08:28:52;;;;;;;2.93;2.30;;;;;;;;;;5050096;28;20217;-76
2022/10/13 08:31:18;;;;;;;5.53;2.17;;;;;;;;;;5050564;28;20194;-75
2022/10/13 08:33:46;;;;;;;3.77;1.90;;;;;;;;;;5050322;28;20687;-76
2022/10/13 08:36:13;;;;;;;3.50;2.23;;;;;;;;;;5036293;28;20588;-76
2022/10/13 08:38:41;;;;;;;1.97;1.87;;;;;;;;;;5050475;28;20276;-76
2022/10/13 08:41:15;;;;;;;3.03;2.00;;;;;;;;;;5050364;28;20208;-76
2022/10/13 08:43:45;;;;;;;1.90;1.53;;;;;;;;;;5050419;28;20267;-76
2022/10/13 08:46:15;;;;;;;2.33;2.00;;;;;;;;;;5049956;28;20208;-76
2022/10/13 08:48:42;;;;;;;3.47;2.17;;;;;;;;;;5052477;28;20213;-76
2022/10/13 08:51:12;;;;;;;10.23;2.20;;;;;;;;;;5054217;28;20209;-76
2022/10/13 08:53:43;;;;;;;2.10;2.00;;;;;;;;;;5054782;28;20236;-76
2022/10/13 08:56:13;;;;;;;2.00;1.80;;;;;;;;;;5054113;28;20714;-76
2022/10/13 08:58:42;;;;;;;3.13;1.80;;;;;;;;;;5054009;28;20225;-76
2022/10/13 09:01:13;;;;;;;3.07;1.93;;;;;;;;;;5054208;28;20205;-75
2022/10/13 09:03:47;;;;;;;4.83;1.90;;;;;;;;;;5054299;28;20266;-76
2022/10/13 09:06:16;;;;;;;4.20;1.70;;;;;;;;;;5054330;28;20208;-76
2022/10/13 09:08:50;;;;;;;1.93;1.83;;;;;;;;;;5054057;28;20224;-77
2022/10/13 09:11:16;;;;;;;4.03;2.17;;;;;;;;;;5054037;28;20206;-77
2022/10/13 09:13:43;;;;;;;2.00;1.80;;;;;;;;;;5054529;28;20654;-76
2022/10/13 09:16:10;;;;;;;2.53;2.30;;;;;;;;;;5053968;28;20267;-76
2022/10/13 09:18:37;;;;;;;2.20;2.00;;;;;;;;;;5053868;28;20209;-76
2022/10/13 09:21:12;;;;;;;2.67;2.00;;;;;;;;;;5053876;28;20688;-77
2022/10/13 09:23:38;;;;;;;4.60;1.87;;;;;;;;;;5053796;28;20205;-76
2022/10/13 09:26:18;;;;;;;2.80;2.60;;;;;;;;;;5053243;28;20218;-77
2022/10/13 09:28:45;;;;;;;3.07;2.10;;;;;;;;;;5053904;28;20202;-76
2022/10/13 09:31:16;;;;;;;2.03;1.87;;;;;;;;;;5053612;28;20206;-76
2022/10/13 09:33:43;;;;;;;3.27;2.03;;;;;;;;;;5053793;28;20640;-77
2022/10/13 09:36:12;;;;;;;4.37;2.00;;;;;;;;;;5053185;28;20195;-77
2022/10/13 09:38:40;;;;;;;2.50;2.30;;;;;;;;;;5053628;28;20583;-77
2022/10/13 09:41:16;;;;;;;6.93;2.37;;;;;;;;;;5053824;28;20198;-76
2022/10/13 09:43:56;;;;;;;2.97;2.50;;;;;;;;;;5053768;28;20605;-76
2022/10/13 09:46:26;;;;;;;4.93;2.20;;;;;;;;;;5053260;28;20201;-77
2022/10/13 09:48:57;;;;;;;2.77;2.03;;;;;;;;;;5053269;28;20210;-77
2022/10/13 09:51:32;;;;;;;3.47;2.83;;;;;;;;;;5053201;28;20205;-77
2022/10/13 09:53:59;;;;;;;3.00;2.50;;;;;;;;;;5053150;28;20233;-76
2022/10/13 09:56:31;;;;;;;6.33;2.47;;;;;;;;;;5053325;28;20277;-77
2022/10/13 09:59:10;;;;;;;4.53;2.10;;;;;;;;;;5052714;28;20202;-77
2022/10/13 10:01:41;;;;;;;6.37;2.70;;;;;;;;;;5053514;28;20209;-76
2022/10/13 10:04:12;;;;;;;5.60;2.97;;;;;;;;;;5052892;28;20202;-77
2022/10/13 10:06:40;;;;;;;8.37;2.53;;;;;;;;;;5053107;28;20202;-77
2022/10/13 10:09:22;;;;;;;5.50;3.00;;;;;;;;;;5052935;28;20729;-76
2022/10/13 10:11:52;;;;;;;5.73;2.90;;;;;;;;;;5052669;28;20199;-76
2022/10/13 10:14:24;;;;;;;5.23;2.50;;;;;;;;;;5053046;28;20202;-77
2022/10/13 10:16:56;;;;;;;3.10;2.40;;;;;;;;;;5052980;28;20241;-77
2022/10/13 10:19:27;;;;;;;5.37;2.77;;;;;;;;;;5052744;28;20233;-77
2022/10/13 10:22:02;;;;;;;3.40;2.40;;;;;;;;;;5052843;28;20230;-77
2022/10/13 10:24:34;;;;;;;2.30;2.13;;;;;;;;;;5053030;28;20198;-77
2022/10/13 10:27:06;;;;;;;5.60;2.67;;;;;;;;;;5052851;28;20569;-76
2022/10/13 10:29:40;;;;;;;3.90;2.40;;;;;;;;;;5052639;28;20581;-77
2022/10/13 10:32:26;;;;;;;6.80;2.40;;;;;;;;;;5052471;28;20201;-77
2022/10/13 10:34:54;;;;;;;17.43;4.30;;;;;;;;;;5052297;28;20699;-78
2022/10/13 10:37:31;;;;;;;4.17;2.83;;;;;;;;;;5052832;28;20198;-77
2022/10/13 10:40:04;;;;;;;7.00;2.97;;;;;;;;;;5052498;28;20251;-77
2022/10/13 10:43:03;;;;;;;8.07;3.80;;;;;;;;;;5052764;28;20209;-77
2022/10/13 10:45:34;;;;;;;5.43;2.47;;;;;;;;;;5047502;28;20202;-77
2022/10/13 10:48:03;;;;;;;2.43;2.00;;;;;;;;;;5052589;28;20202;-77
2022/10/13 10:50:32;;;;;;;5.47;2.60;;;;;;;;;;5052144;28;20202;-76
2022/10/13 10:53:01;;;;;;;6.60;2.00;;;;;;;;;;5052329;28;20234;-76
2022/10/13 10:55:33;;;;;;;4.37;2.00;;;;;;;;;;5051814;28;20205;-76
2022/10/13 10:58:09;;;;;;;2.17;1.97;;;;;;;;;;5052135;28;20194;-76
2022/10/13 11:00:40;;;;;;;2.20;2.00;;;;;;;;;;5052036;28;20225;-77
2022/10/13 11:03:10;;;;;;;4.13;3.23;;;;;;;;;;5052236;28;20221;-77
2022/10/13 11:06:21;;;;;;;4.20;1.97;;;;;;;;;;5037704;28;20676;-77
2022/10/13 11:08:49;;;;;;;3.03;2.10;;;;;;;;;;5009859;28;20214;-77
2022/10/13 11:11:37;;;;;;;3.30;2.03;;;;;;;;;;5038658;28;20267;-77
2022/10/13 11:14:23;;;;;;;3.40;1.50;;;;;;;;;;5051558;28;20201;-77
2022/10/13 11:17:18;;;;;;;3.13;2.40;;;;;;;;;;5052041;28;20263;-77
2022/10/13 11:19:46;;;;;;;2.37;2.03;;;;;;;;;;5047781;28;20233;-77
2022/10/13 11:22:22;;;;;;;2.70;2.30;;;;;;;;;;5051705;28;20919;-77
2022/10/13 11:25:17;;;;;;;2.23;1.90;;;;;;;;;;5050968;28;20263;-77
2022/10/13 11:27:44;;;;;;;5.37;1.83;;;;;;;;;;5038141;28;20217;-76
2022/10/13 11:30:42;;;;;;;4.33;1.50;;;;;;;;;;5051715;28;20198;-77
2022/10/13 11:33:47;;;;;;;5.63;1.93;;;;;;;;;;5039729;28;20244;-77
2022/10/13 11:36:41;;;;;;;1.90;1.70;;;;;;;;;;5037666;28;20205;-76
2022/10/13 11:39:54;;;;;;;2.43;1.90;;;;;;;;;;5051552;28;20264;-77
2022/10/13 11:43:03;;;;;;;1.87;1.70;;;;;;;;;;5051124;28;20265;-77
2022/10/13 11:46:06;;;;;;;3.20;1.80;;;;;;;;;;5050999;28;20221;-77
2022/10/13 11:49:05;;;;;;;2.63;2.03;;;;;;;;;;5012781;28;20198;-76
2022/10/13 11:51:44;;;;;;;2.10;1.83;;;;;;;;;;5051073;28;20645;-76
2022/10/13 11:54:21;;;;;;;2.43;2.10;;;;;;;;;;5050993;28;20371;-77
2022/10/13 11:56:50;;;;;;;4.77;2.10;;;;;;;;;;5051180;28;20201;-76
2022/10/13 11:59:21;;;;;;;1.80;1.70;;;;;;;;;;5050923;28;20212;-76
2022/10/13 12:01:49;;;;;;;1.63;1.53;;;;;;;;;;5050742;28;20205;-77
2022/10/13 12:04:15;;;;;;;2.23;1.63;;;;;;;;;;5050462;28;20205;-77
2022/10/13 12:06:56;;;;;;;1.27;1.17;;;;;;;;;;5051264;28;20208;-76
2022/10/13 12:09:23;;;;;;;1.50;1.40;;;;;;;;;;5050659;28;20206;-77
2022/10/13 12:11:56;;;;;;;1.77;1.60;;;;;;;;;;5050974;28;20205;-76
2022/10/13 12:14:27;;;;;;;2.13;1.50;;;;;;;;;;5050982;28;20208;-76
2022/10/13 12:16:54;;;;;;;1.43;1.20;;;;;;;;;;5050551;28;20206;-76
2022/10/13 12:19:23;;;;;;;2.93;1.40;;;;;;;;;;5050545;28;20202;-76
2022/10/13 12:21:53;;;;;;;3.10;1.60;;;;;;;;;;5050510;28;20696;-76
2022/10/13 12:24:22;;;;;;;6.73;1.60;;;;;;;;;;5037025;28;20558;-76
2022/10/13 12:26:49;;;;;;;5.07;2.30;;;;;;;;;;5050370;28;20202;-76
2022/10/13 12:29:17;;;;;;;3.13;1.60;;;;;;;;;;5049961;28;20280;-77
2022/10/13 12:31:45;;;;;;;3.83;1.50;;;;;;;;;;5050537;28;20240;-77
2022/10/13 12:34:19;;;;;;;1.27;1.20;;;;;;;;;;5050618;28;20201;-76
2022/10/13 12:36:46;;;;;;;2.10;2.00;;;;;;;;;;5050144;28;20198;-76
2022/10/13 12:39:15;;;;;;;1.70;1.60;;;;;;;;;;5050236;28;20202;-76
2022/10/13 12:41:44;;;;;;;1.33;1.30;;;;;;;;;;5050209;28;20305;-76
2022/10/13 12:44:13;;;;;;;1.73;1.53;;;;;;;;;;5050070;28;20209;-76
2022/10/13 12:46:42;;;;;;;2.87;1.67;;;;;;;;;;5050389;28;20205;-76
2022/10/13 12:49:14;;;;;;;1.40;0.93;;;;;;;;;;5050224;28;20601;-76
2022/10/13 12:51:42;;;;;;;4.87;1.60;;;;;;;;;;5050371;28;20198;-77
2022/10/13 12:54:12;;;;;;;5.97;1.43;;;;;;;;;;5050571;28;20683;-76
2022/10/13 12:56:42;;;;;;;2.13;1.80;;;;;;;;;;5050177;28;20283;-77
2022/10/13 12:59:16;;;;;;;7.40;2.60;;;;;;;;;;5050260;28;20198;-77
2022/10/13 13:01:42;;;;;;;2.60;1.53;;;;;;;;;;5050448;28;20233;-76
2022/10/13 13:04:17;;;;;;;2.20;1.30;;;;;;;;;;5050188;28;20233;-77
2022/10/13 13:06:55;;;;;;;2.73;1.97;;;;;;;;;;5049978;28;20205;-76
2022/10/13 13:09:26;;;;;;;1.70;1.40;;;;;;;;;;5050239;28;20286;-76
2022/10/13 13:12:26;;;;;;;4.97;1.50;;;;;;;;;;5050320;28;20194;-76
2022/10/13 13:14:53;;;;;;;4.60;1.40;;;;;;;;;;5047091;28;20206;-76
2022/10/13 13:17:29;;;;;;;1.37;1.27;;;;;;;;;;5049905;28;20280;-77
2022/10/13 13:19:57;;;;;;;1.63;1.53;;;;;;;;;;5050096;28;20703;-77
2022/10/13 13:22:25;;;;;;;1.53;1.40;;;;;;;;;;5049966;28;20672;-76
2022/10/13 13:24:52;;;;;;;1.97;1.30;;;;;;;;;;5049989;28;20244;-77
2022/10/13 13:27:35;;;;;;;1.17;1.13;;;;;;;;;;5049820;28;20229;-76
2022/10/13 13:30:02;;;;;;;1.23;1.13;;;;;;;;;;5049712;28;20267;-76
2022/10/13 13:32:29;;;;;;;1.40;1.20;;;;;;;;;;5050111;28;20202;-77
2022/10/13 13:34:56;;;;;;;7.90;1.60;;;;;;;;;;5052540;28;20717;-77
2022/10/13 13:37:27;;;;;;;1.47;1.37;;;;;;;;;;5053439;28;20213;-77
2022/10/13 13:39:54;;;;;;;1.63;1.53;;;;;;;;;;5053495;28;20205;-77
2022/10/13 13:42:21;;;;;;;3.63;1.80;;;;;;;;;;5053226;28;20201;-77
2022/10/13 13:44:49;;;;;;;6.10;2.37;;;;;;;;;;5053408;28;20202;-77
2022/10/13 13:47:18;;;;;;;1.50;1.40;;;;;;;;;;5053673;28;20205;-77
2022/10/13 13:49:44;;;;;;;2.13;1.23;;;;;;;;;;5053054;28;20202;-77
2022/10/13 13:52:14;;;;;;;1.67;1.43;;;;;;;;;;5053676;28;20631;-77
2022/10/13 13:54:41;;;;;;;3.47;1.70;;;;;;;;;;5052736;28;20210;-77
2022/10/13 13:57:08;;;;;;;1.47;1.20;;;;;;;;;;5053192;28;20202;-77
2022/10/13 13:59:35;;;;;;;2.57;1.40;;;;;;;;;;5053332;28;20629;-77
2022/10/13 14:02:03;;;;;;;1.50;1.40;;;;;;;;;;5053274;28;20359;-76
2022/10/13 14:04:30;;;;;;;1.50;1.40;;;;;;;;;;5052943;28;20206;-77
2022/10/13 14:06:57;;;;;;;1.40;1.30;;;;;;;;;;5052941;28;20200;-77
2022/10/13 14:09:24;;;;;;;1.03;1.03;;;;;;;;;;5052783;28;20217;-77
2022/10/13 14:11:50;;;;;;;2.17;1.57;;;;;;;;;;5052891;28;20632;-77
2022/10/13 14:14:17;;;;;;;2.30;1.67;;;;;;;;;;5053134;28;20217;-77
2022/10/13 14:16:44;;;;;;;2.07;1.50;;;;;;;;;;5053126;28;20202;-76
2022/10/13 14:19:12;;;;;;;2.47;1.43;;;;;;;;;;5052589;28;20206;-77
2022/10/13 14:21:39;;;;;;;2.17;1.30;;;;;;;;;;5052738;28;20221;-76
2022/10/13 14:24:06;;;;;;;2.50;2.30;;;;;;;;;;5052806;28;20213;-76
2022/10/13 14:26:33;;;;;;;1.73;1.20;;;;;;;;;;5052773;28;20225;-76
2022/10/13 14:29:00;;;;;;;2.20;1.30;;;;;;;;;;5052369;28;20229;-77
2022/10/13 14:31:26;;;;;;;6.80;2.27;;;;;;;;;;5052909;28;20638;-76
2022/10/13 14:33:53;;;;;;;1.20;1.10;;;;;;;;;;5052452;28;20800;-76
2022/10/13 14:36:24;;;;;;;2.87;1.73;;;;;;;;;;5051955;28;20209;-76
2022/10/13 14:38:51;;;;;;;1.80;1.30;;;;;;;;;;5052764;28;20214;-76
2022/10/13 14:41:18;;;;;;;2.20;2.00;;;;;;;;;;5052660;28;20226;-76
2022/10/13 14:43:45;;;;;;;3.53;1.63;;;;;;;;;;5052374;28;20263;-76
2022/10/13 14:46:13;;;;;;;3.07;2.40;;;;;;;;;;5050757;28;20740;-77
2022/10/13 14:48:39;;;;;;;4.97;3.20;;;;;;;;;;5052420;28;20205;-76
2022/10/13 14:51:07;;;;;;;3.83;3.53;;;;;;;;;;5051834;28;20214;-79
2022/10/13 14:53:36;;;;;;;7.53;6.03;;;;;;;;;;5052419;28;20614;-76
2022/10/13 14:56:04;;;;;;;9.17;5.00;;;;;;;;;;5051979;28;20213;-76
2022/10/13 14:58:30;;;;;;;6.07;2.03;;;;;;;;;;5052091;28;20264;-77